sensor_id;sensor_type;location;lat;lon;timestamp;pressure;altitude;pressure_sealevel;temperature;humidity
6150;BME280;3106;42.670;23.318;2023-12-28T00:01:53;95500.25;;;5.31;100.00
6150;BME280;3106;42.670;23.318;2023-12-28T00:04:20;95496.47;;;5.37;100.00
6150;BME280;3106;42.670;23.318;2023-12-28T00:06:47;95497.50;;;5.41;100.00
6150;BME280;3106;42.670;23.318;2023-12-28T00:09:17;95495.91;;;5.40;100.00
6150;BME280;3106;42.670;23.318;2023-12-28T00:11:44;95505.00;;;5.34;100.00
6150;BME280;3106;42.670;23.318;2023-12-28T00:14:13;95512.94;;;5.34;100.00
6150;BME280;3106;42.670;23.318;2023-12-28T00:16:40;95509.78;;;5.32;100.00
6150;BME280;3106;42.670;23.318;2023-12-28T00:19:06;95499.00;;;5.23;100.00
6150;BME280;3106;42.670;23.318;2023-12-28T00:21:33;95520.66;;;5.30;100.00
6150;BME280;3106;42.670;23.318;2023-12-28T00:24:00;95503.81;;;5.21;100.00
6150;BME280;3106;42.670;23.318;2023-12-28T00:26:26;95512.47;;;5.27;100.00
6150;BME280;3106;42.670;23.318;2023-12-28T00:28:54;95511.75;;;5.21;100.00
6150;BME280;3106;42.670;23.318;2023-12-28T00:31:22;95519.22;;;5.19;100.00
6150;BME280;3106;42.670;23.318;2023-12-28T00:33:48;95517.13;;;5.16;100.00
6150;BME280;3106;42.670;23.318;2023-12-28T00:36:16;95515.31;;;5.12;100.00
6150;BME280;3106;42.670;23.318;2023-12-28T00:42:17;95526.53;;;5.04;100.00
6150;BME280;3106;42.670;23.318;2023-12-28T00:44:44;95518.56;;;5.04;100.00
6150;BME280;3106;42.670;23.318;2023-12-28T00:47:12;95477.28;;;4.74;100.00
6150;BME280;3106;42.670;23.318;2023-12-28T00:49:38;95530.81;;;5.00;100.00
6150;BME280;3106;42.670;23.318;2023-12-28T00:52:05;95536.66;;;4.97;100.00
6150;BME280;3106;42.670;23.318;2023-12-28T00:54:32;95538.06;;;4.89;100.00
6150;BME280;3106;42.670;23.318;2023-12-28T00:56:59;95533.53;;;4.90;100.00
6150;BME280;3106;42.670;23.318;2023-12-28T00:59:26;95535.66;;;4.88;100.00
6150;BME280;3106;42.670;23.318;2023-12-28T01:01:53;95532.50;;;4.86;100.00
6150;BME280;3106;42.670;23.318;2023-12-28T01:04:21;95542.59;;;4.84;100.00
6150;BME280;3106;42.670;23.318;2023-12-28T01:06:48;95540.75;;;4.84;100.00
6150;BME280;3106;42.670;23.318;2023-12-28T01:09:15;95531.53;;;4.77;100.00
6150;BME280;3106;42.670;23.318;2023-12-28T01:11:42;95540.97;;;4.88;100.00
6150;BME280;3106;42.670;23.318;2023-12-28T01:14:09;95535.91;;;4.91;100.00
6150;BME280;3106;42.670;23.318;2023-12-28T01:16:37;95534.56;;;4.94;100.00
6150;BME280;3106;42.670;23.318;2023-12-28T01:19:04;95536.94;;;4.95;100.00
6150;BME280;3106;42.670;23.318;2023-12-28T01:21:33;95540.66;;;4.94;100.00
6150;BME280;3106;42.670;23.318;2023-12-28T01:23:59;95535.91;;;4.91;100.00
6150;BME280;3106;42.670;23.318;2023-12-28T01:26:27;95544.94;;;4.90;100.00
6150;BME280;3106;42.670;23.318;2023-12-28T01:28:54;95524.28;;;4.87;100.00
6150;BME280;3106;42.670;23.318;2023-12-28T01:31:22;95535.97;;;4.86;100.00
6150;BME280;3106;42.670;23.318;2023-12-28T01:33:49;95538.88;;;4.85;100.00
6150;BME280;3106;42.670;23.318;2023-12-28T01:36:17;95533.63;;;4.80;100.00
6150;BME280;3106;42.670;23.318;2023-12-28T01:38:45;95530.47;;;4.78;100.00
6150;BME280;3106;42.670;23.318;2023-12-28T01:41:16;95524.97;;;4.74;100.00
6150;BME280;3106;42.670;23.318;2023-12-28T01:43:45;95505.97;;;4.62;100.00
6150;BME280;3106;42.670;23.318;2023-12-28T01:46:14;95515.22;;;4.65;100.00
6150;BME280;3106;42.670;23.318;2023-12-28T01:48:44;95524.56;;;4.57;100.00
6150;BME280;3106;42.670;23.318;2023-12-28T01:51:12;95535.41;;;4.61;100.00
6150;BME280;3106;42.670;23.318;2023-12-28T01:53:40;95523.72;;;4.62;100.00
6150;BME280;3106;42.670;23.318;2023-12-28T01:56:08;95526.94;;;4.59;100.00
6150;BME280;3106;42.670;23.318;2023-12-28T01:58:36;95521.41;;;4.55;100.00
6150;BME280;3106;42.670;23.318;2023-12-28T02:01:05;95525.63;;;4.56;100.00
6150;BME280;3106;42.670;23.318;2023-12-28T02:03:32;95522.19;;;4.56;100.00
6150;BME280;3106;42.670;23.318;2023-12-28T02:06:00;95522.00;;;4.47;100.00
6150;BME280;3106;42.670;23.318;2023-12-28T02:08:31;95488.88;;;4.17;100.00
6150;BME280;3106;42.670;23.318;2023-12-28T02:10:58;95514.16;;;4.38;100.00
6150;BME280;3106;42.670;23.318;2023-12-28T02:13:26;95507.22;;;4.42;100.00
6150;BME280;3106;42.670;23.318;2023-12-28T02:15:56;95516.69;;;4.47;100.00
6150;BME280;3106;42.670;23.318;2023-12-28T02:18:29;95514.66;;;4.35;100.00
6150;BME280;3106;42.670;23.318;2023-12-28T02:20:58;95511.81;;;4.31;100.00
6150;BME280;3106;42.670;23.318;2023-12-28T02:23:24;95513.47;;;4.22;100.00
6150;BME280;3106;42.670;23.318;2023-12-28T02:25:52;95507.63;;;4.25;100.00
6150;BME280;3106;42.670;23.318;2023-12-28T02:28:19;95507.13;;;4.18;100.00
6150;BME280;3106;42.670;23.318;2023-12-28T02:30:47;95504.47;;;4.23;100.00
6150;BME280;3106;42.670;23.318;2023-12-28T02:33:18;95489.97;;;4.11;100.00
6150;BME280;3106;42.670;23.318;2023-12-28T02:35:50;95515.03;;;4.23;100.00
6150;BME280;3106;42.670;23.318;2023-12-28T02:38:19;95516.88;;;4.23;100.00
6150;BME280;3106;42.670;23.318;2023-12-28T02:40:47;95520.56;;;4.27;100.00
6150;BME280;3106;42.670;23.318;2023-12-28T02:43:16;95519.28;;;4.24;100.00
6150;BME280;3106;42.670;23.318;2023-12-28T02:45:43;95513.47;;;4.17;100.00
6150;BME280;3106;42.670;23.318;2023-12-28T02:48:12;95512.44;;;4.13;100.00
6150;BME280;3106;42.670;23.318;2023-12-28T02:50:39;95487.44;;;3.96;100.00
6150;BME280;3106;42.670;23.318;2023-12-28T02:53:06;95513.03;;;4.05;100.00
6150;BME280;3106;42.670;23.318;2023-12-28T02:55:33;95515.44;;;4.02;100.00
6150;BME280;3106;42.670;23.318;2023-12-28T02:57:59;95509.09;;;4.03;100.00
6150;BME280;3106;42.670;23.318;2023-12-28T03:00:28;95500.66;;;3.96;100.00
6150;BME280;3106;42.670;23.318;2023-12-28T03:02:54;95499.94;;;3.85;100.00
6150;BME280;3106;42.670;23.318;2023-12-28T03:05:21;95492.53;;;3.87;100.00
6150;BME280;3106;42.670;23.318;2023-12-28T03:07:48;95487.22;;;3.87;100.00
6150;BME280;3106;42.670;23.318;2023-12-28T03:10:15;95494.09;;;3.88;100.00
6150;BME280;3106;42.670;23.318;2023-12-28T03:12:43;95486.94;;;3.89;100.00
6150;BME280;3106;42.670;23.318;2023-12-28T03:15:10;95485.31;;;3.93;100.00
6150;BME280;3106;42.670;23.318;2023-12-28T03:17:38;95470.31;;;3.88;100.00
6150;BME280;3106;42.670;23.318;2023-12-28T03:20:06;95488.78;;;3.93;100.00
6150;BME280;3106;42.670;23.318;2023-12-28T03:22:33;95491.16;;;3.90;100.00
6150;BME280;3106;42.670;23.318;2023-12-28T03:25:00;95490.19;;;3.81;100.00
6150;BME280;3106;42.670;23.318;2023-12-28T03:27:27;95485.47;;;3.73;100.00
6150;BME280;3106;42.670;23.318;2023-12-28T03:29:53;95484.94;;;3.71;100.00
6150;BME280;3106;42.670;23.318;2023-12-28T03:32:32;95480.22;;;3.63;100.00
6150;BME280;3106;42.670;23.318;2023-12-28T03:35:04;95490.34;;;3.51;100.00
6150;BME280;3106;42.670;23.318;2023-12-28T03:37:32;95492.78;;;3.32;100.00
6150;BME280;3106;42.670;23.318;2023-12-28T03:39:58;95495.72;;;3.21;100.00
6150;BME280;3106;42.670;23.318;2023-12-28T03:42:25;95508.19;;;3.15;100.00
6150;BME280;3106;42.670;23.318;2023-12-28T03:44:52;95502.38;;;3.13;100.00
6150;BME280;3106;42.670;23.318;2023-12-28T03:47:19;95505.56;;;3.15;100.00
6150;BME280;3106;42.670;23.318;2023-12-28T03:49:46;95506.63;;;3.04;100.00
6150;BME280;3106;42.670;23.318;2023-12-28T03:52:14;95514.81;;;3.08;100.00
6150;BME280;3106;42.670;23.318;2023-12-28T03:54:40;95521.66;;;3.14;100.00
6150;BME280;3106;42.670;23.318;2023-12-28T03:57:07;95526.16;;;3.13;100.00
6150;BME280;3106;42.670;23.318;2023-12-28T03:59:34;95523.50;;;3.08;100.00
6150;BME280;3106;42.670;23.318;2023-12-28T04:02:01;95518.25;;;3.13;100.00
6150;BME280;3106;42.670;23.318;2023-12-28T04:04:28;95512.41;;;3.16;100.00
6150;BME280;3106;42.670;23.318;2023-12-28T04:06:55;95522.41;;;3.24;100.00
6150;BME280;3106;42.670;23.318;2023-12-28T04:09:23;95501.84;;;3.16;100.00
6150;BME280;3106;42.670;23.318;2023-12-28T04:11:49;95504.47;;;3.21;100.00
6150;BME280;3106;42.670;23.318;2023-12-28T04:14:16;95519.50;;;3.31;100.00
6150;BME280;3106;42.670;23.318;2023-12-28T04:16:44;95495.53;;;3.12;100.00
6150;BME280;3106;42.670;23.318;2023-12-28T04:19:12;95524.78;;;3.31;100.00
6150;BME280;3106;42.670;23.318;2023-12-28T04:21:42;95516.59;;;3.27;100.00
6150;BME280;3106;42.670;23.318;2023-12-28T04:24:09;95524.25;;;3.29;100.00
6150;BME280;3106;42.670;23.318;2023-12-28T04:26:40;95526.63;;;3.30;100.00
6150;BME280;3106;42.670;23.318;2023-12-28T04:29:06;95529.28;;;3.25;100.00
6150;BME280;3106;42.670;23.318;2023-12-28T04:31:33;95514.53;;;3.14;100.00
6150;BME280;3106;42.670;23.318;2023-12-28T04:34:00;95524.03;;;3.15;100.00
6150;BME280;3106;42.670;23.318;2023-12-28T04:36:27;95527.22;;;3.12;100.00
6150;BME280;3106;42.670;23.318;2023-12-28T04:38:54;95521.94;;;3.02;100.00
6150;BME280;3106;42.670;23.318;2023-12-28T04:41:21;95521.41;;;3.00;100.00
6150;BME280;3106;42.670;23.318;2023-12-28T04:43:49;95519.28;;;3.07;100.00
6150;BME280;3106;42.670;23.318;2023-12-28T04:46:16;95522.44;;;3.09;100.00
6150;BME280;3106;42.670;23.318;2023-12-28T04:48:45;95515.59;;;3.08;100.00
6150;BME280;3106;42.670;23.318;2023-12-28T04:51:12;95498.97;;;3.08;100.00
6150;BME280;3106;42.670;23.318;2023-12-28T04:53:39;95524.56;;;3.17;100.00
6150;BME280;3106;42.670;23.318;2023-12-28T04:56:06;95518.22;;;3.08;100.00
6150;BME280;3106;42.670;23.318;2023-12-28T04:58:33;95511.38;;;3.12;100.00
6150;BME280;3106;42.670;23.318;2023-12-28T05:01:02;95510.03;;;3.10;100.00
6150;BME280;3106;42.670;23.318;2023-12-28T05:03:29;95509.50;;;3.13;100.00
6150;BME280;3106;42.670;23.318;2023-12-28T05:05:56;95502.94;;;3.10;100.00
6150;BME280;3106;42.670;23.318;2023-12-28T05:08:23;95519.00;;;3.14;100.00
6150;BME280;3106;42.670;23.318;2023-12-28T05:10:49;95518.22;;;3.18;100.00
6150;BME280;3106;42.670;23.318;2023-12-28T05:13:16;95511.09;;;3.09;100.00
6150;BME280;3106;42.670;23.318;2023-12-28T05:15:43;95513.50;;;3.10;100.00
6150;BME280;3106;42.670;23.318;2023-12-28T05:18:11;95510.84;;;3.15;100.00
6150;BME280;3106;42.670;23.318;2023-12-28T05:20:38;95526.41;;;3.17;100.00
6150;BME280;3106;42.670;23.318;2023-12-28T05:23:05;95517.38;;;3.28;100.00
6150;BME280;3106;42.670;23.318;2023-12-28T05:25:31;95524.03;;;3.20;100.00
6150;BME280;3106;42.670;23.318;2023-12-28T05:27:58;95526.09;;;3.28;100.00
6150;BME280;3106;42.670;23.318;2023-12-28T05:30:26;95521.06;;;3.27;100.00
6150;BME280;3106;42.670;23.318;2023-12-28T05:32:52;95516.13;;;3.15;100.00
6150;BME280;3106;42.670;23.318;2023-12-28T05:35:20;95524.06;;;3.10;100.00
6150;BME280;3106;42.670;23.318;2023-12-28T05:37:47;95531.66;;;3.22;100.00
6150;BME280;3106;42.670;23.318;2023-12-28T05:40:14;95528.47;;;3.25;100.00
6150;BME280;3106;42.670;23.318;2023-12-28T05:42:41;95531.66;;;3.22;100.00
6150;BME280;3106;42.670;23.318;2023-12-28T05:45:08;95533.78;;;3.20;100.00
6150;BME280;3106;42.670;23.318;2023-12-28T05:47:36;95537.50;;;3.14;100.00
6150;BME280;3106;42.670;23.318;2023-12-28T05:50:04;95517.75;;;2.96;100.00
6150;BME280;3106;42.670;23.318;2023-12-28T05:52:32;95530.38;;;3.04;100.00
6150;BME280;3106;42.670;23.318;2023-12-28T05:54:59;95531.97;;;3.05;100.00
6150;BME280;3106;42.670;23.318;2023-12-28T05:57:26;95542.00;;;3.08;100.00
6150;BME280;3106;42.670;23.318;2023-12-28T05:59:56;95540.69;;;3.06;100.00
6150;BME280;3106;42.670;23.318;2023-12-28T06:02:23;95549.94;;;3.08;100.00
6150;BME280;3106;42.670;23.318;2023-12-28T06:04:49;95550.47;;;3.10;100.00
6150;BME280;3106;42.670;23.318;2023-12-28T06:07:16;95547.84;;;3.10;100.00
6150;BME280;3106;42.670;23.318;2023-12-28T06:09:44;95548.59;;;3.11;100.00
6150;BME280;3106;42.670;23.318;2023-12-28T06:12:11;95538.84;;;3.16;100.00
6150;BME280;3106;42.670;23.318;2023-12-28T06:14:39;95545.94;;;3.21;100.00
6150;BME280;3106;42.670;23.318;2023-12-28T06:17:07;95555.44;;;3.22;100.00
6150;BME280;3106;42.670;23.318;2023-12-28T06:19:34;95552.25;;;3.25;100.00
6150;BME280;3106;42.670;23.318;2023-12-28T06:22:02;95551.53;;;3.14;100.00
6150;BME280;3106;42.670;23.318;2023-12-28T06:24:29;95545.97;;;3.11;100.00
6150;BME280;3106;42.670;23.318;2023-12-28T06:26:57;95546.53;;;3.03;100.00
6150;BME280;3106;42.670;23.318;2023-12-28T06:29:24;95551.75;;;3.18;100.00
6150;BME280;3106;42.670;23.318;2023-12-28T06:31:51;95554.66;;;3.26;100.00
6150;BME280;3106;42.670;23.318;2023-12-28T06:34:17;95508.50;;;2.99;100.00
6150;BME280;3106;42.670;23.318;2023-12-28T06:36:44;95554.13;;;3.24;100.00
6150;BME280;3106;42.670;23.318;2023-12-28T06:39:11;95556.78;;;3.24;100.00
6150;BME280;3106;42.670;23.318;2023-12-28T06:41:38;95530.38;;;3.14;100.00
6150;BME280;3106;42.670;23.318;2023-12-28T06:44:06;95562.78;;;3.45;100.00
6150;BME280;3106;42.670;23.318;2023-12-28T06:46:34;95572.00;;;3.57;100.00
6150;BME280;3106;42.670;23.318;2023-12-28T06:49:00;95574.63;;;3.62;100.00
6150;BME280;3106;42.670;23.318;2023-12-28T06:51:27;95561.88;;;3.74;100.00
6150;BME280;3106;42.670;23.318;2023-12-28T06:53:54;95585.91;;;3.83;100.00
6150;BME280;3106;42.670;23.318;2023-12-28T06:56:21;95571.63;;;3.84;100.00
6150;BME280;3106;42.670;23.318;2023-12-28T06:58:49;95574.19;;;3.94;100.00
6150;BME280;3106;42.670;23.318;2023-12-28T07:01:17;95570.47;;;4.00;100.00
6150;BME280;3106;42.670;23.318;2023-12-28T07:03:44;95578.88;;;4.12;100.00
6150;BME280;3106;42.670;23.318;2023-12-28T07:06:13;95562.00;;;3.98;100.00
6150;BME280;3106;42.670;23.318;2023-12-28T07:08:40;95579.41;;;4.14;100.00
6150;BME280;3106;42.670;23.318;2023-12-28T07:11:10;95567.50;;;4.11;99.68
6150;BME280;3106;42.670;23.318;2023-12-28T07:13:38;95576.97;;;4.22;99.92
6150;BME280;3106;42.670;23.318;2023-12-28T07:16:06;95567.97;;;4.18;99.80
6150;BME280;3106;42.670;23.318;2023-12-28T07:18:35;95588.00;;;4.34;99.18
6150;BME280;3106;42.670;23.318;2023-12-28T07:21:02;95577.13;;;4.41;98.57
6150;BME280;3106;42.670;23.318;2023-12-28T07:23:30;95579.44;;;4.47;99.21
6150;BME280;3106;42.670;23.318;2023-12-28T07:25:56;95580.16;;;4.57;99.34
6150;BME280;3106;42.670;23.318;2023-12-28T07:28:24;95573.75;;;4.63;99.05
6150;BME280;3106;42.670;23.318;2023-12-28T07:30:50;95579.47;;;4.80;98.40
6150;BME280;3106;42.670;23.318;2023-12-28T07:33:17;95578.31;;;4.91;98.13
6150;BME280;3106;42.670;23.318;2023-12-28T07:35:45;95589.59;;;5.02;97.53
6150;BME280;3106;42.670;23.318;2023-12-28T07:38:13;95593.75;;;5.13;97.21
6150;BME280;3106;42.670;23.318;2023-12-28T07:40:40;95586.16;;;5.30;97.27
6150;BME280;3106;42.670;23.318;2023-12-28T07:43:07;95586.19;;;5.25;96.68
6150;BME280;3106;42.670;23.318;2023-12-28T07:45:34;95585.88;;;5.03;97.83
6150;BME280;3106;42.670;23.318;2023-12-28T07:48:04;95585.75;;;5.18;97.47
6150;BME280;3106;42.670;23.318;2023-12-28T07:50:31;95588.53;;;5.31;97.41
6150;BME280;3106;42.670;23.318;2023-12-28T07:52:59;95588.72;;;5.11;97.79
6150;BME280;3106;42.670;23.318;2023-12-28T07:55:26;95591.66;;;5.10;98.34
6150;BME280;3106;42.670;23.318;2023-12-28T07:57:52;95591.63;;;4.81;99.36
6150;BME280;3106;42.670;23.318;2023-12-28T08:00:19;95591.25;;;4.98;99.40
6150;BME280;3106;42.670;23.318;2023-12-28T08:02:46;95602.91;;;4.97;99.35
6150;BME280;3106;42.670;23.318;2023-12-28T08:05:13;95595.69;;;5.02;98.83
6150;BME280;3106;42.670;23.318;2023-12-28T08:07:39;95590.53;;;5.16;98.53
6150;BME280;3106;42.670;23.318;2023-12-28T08:10:08;95591.88;;;5.42;97.84
6150;BME280;3106;42.670;23.318;2023-12-28T08:12:36;95566.50;;;5.59;97.15
6150;BME280;3106;42.670;23.318;2023-12-28T08:15:03;95584.31;;;5.77;95.64
6150;BME280;3106;42.670;23.318;2023-12-28T08:17:30;95571.84;;;6.01;95.47
6150;BME280;3106;42.670;23.318;2023-12-28T08:19:57;95567.75;;;5.90;94.34
6150;BME280;3106;42.670;23.318;2023-12-28T08:22:24;95585.28;;;6.09;93.75
6150;BME280;3106;42.670;23.318;2023-12-28T08:24:51;95577.09;;;6.24;93.33
6150;BME280;3106;42.670;23.318;2023-12-28T08:27:19;95574.41;;;6.06;92.39
6150;BME280;3106;42.670;23.318;2023-12-28T08:29:46;95567.88;;;5.98;92.58
6150;BME280;3106;42.670;23.318;2023-12-28T08:32:12;95577.66;;;6.03;92.89
6150;BME280;3106;42.670;23.318;2023-12-28T08:34:39;95575.88;;;6.35;92.04
6150;BME280;3106;42.670;23.318;2023-12-28T08:37:07;95586.28;;;6.50;91.29
6150;BME280;3106;42.670;23.318;2023-12-28T08:39:33;95589.94;;;6.73;89.98
6150;BME280;3106;42.670;23.318;2023-12-28T08:42:00;95584.50;;;6.96;87.95
6150;BME280;3106;42.670;23.318;2023-12-28T08:44:28;95578.06;;;7.16;86.24
6150;BME280;3106;42.670;23.318;2023-12-28T08:46:55;95570.03;;;7.34;85.31
6150;BME280;3106;42.670;23.318;2023-12-28T08:49:22;95563.44;;;7.58;84.95
6150;BME280;3106;42.670;23.318;2023-12-28T08:51:48;95559.00;;;7.81;84.03
6150;BME280;3106;42.670;23.318;2023-12-28T08:54:16;95566.91;;;7.86;82.01
6150;BME280;3106;42.670;23.318;2023-12-28T08:56:42;95549.06;;;7.73;82.81
6150;BME280;3106;42.670;23.318;2023-12-28T08:59:09;95553.69;;;7.54;84.93
6150;BME280;3106;42.670;23.318;2023-12-28T09:01:40;95546.59;;;7.63;84.60
6150;BME280;3106;42.670;23.318;2023-12-28T09:04:07;95543.72;;;7.46;85.39
6150;BME280;3106;42.670;23.318;2023-12-28T09:06:34;95543.63;;;7.38;86.04
6150;BME280;3106;42.670;23.318;2023-12-28T09:09:00;95544.69;;;7.23;86.91
6150;BME280;3106;42.670;23.318;2023-12-28T09:11:28;95502.81;;;7.02;87.62
6150;BME280;3106;42.670;23.318;2023-12-28T09:14:15;95541.41;;;7.13;87.45
6150;BME280;3106;42.670;23.318;2023-12-28T09:16:45;95518.66;;;7.07;87.84
6150;BME280;3106;42.670;23.318;2023-12-28T09:19:12;95534.28;;;7.53;87.22
6150;BME280;3106;42.670;23.318;2023-12-28T09:21:41;95530.53;;;7.81;85.36
6150;BME280;3106;42.670;23.318;2023-12-28T09:24:08;95527.47;;;7.74;84.06
6150;BME280;3106;42.670;23.318;2023-12-28T09:26:35;95522.94;;;7.75;84.83
6150;BME280;3106;42.670;23.318;2023-12-28T09:29:02;95515.41;;;8.17;84.35
6150;BME280;3106;42.670;23.318;2023-12-28T09:31:29;95512.00;;;8.83;81.51
6150;BME280;3106;42.670;23.318;2023-12-28T09:33:58;95513.91;;;8.91;79.09
6150;BME280;3106;42.670;23.318;2023-12-28T09:36:26;95499.41;;;9.05;79.11
6150;BME280;3106;42.670;23.318;2023-12-28T09:38:53;95503.09;;;8.87;78.00
6150;BME280;3106;42.670;23.318;2023-12-28T09:41:21;95500.25;;;8.62;79.31
6150;BME280;3106;42.670;23.318;2023-12-28T09:43:54;95481.72;;;8.57;79.09
6150;BME280;3106;42.670;23.318;2023-12-28T09:46:21;95483.41;;;8.53;79.86
6150;BME280;3106;42.670;23.318;2023-12-28T09:48:48;95480.72;;;8.75;78.99
6150;BME280;3106;42.670;23.318;2023-12-28T09:51:16;95473.97;;;8.99;78.47
6150;BME280;3106;42.670;23.318;2023-12-28T09:53:43;95477.75;;;9.37;77.80
6150;BME280;3106;42.670;23.318;2023-12-28T09:56:10;95479.00;;;9.78;75.95
6150;BME280;3106;42.670;23.318;2023-12-28T09:58:38;95472.78;;;10.17;73.62
6150;BME280;3106;42.670;23.318;2023-12-28T10:01:06;95469.81;;;10.18;73.67
6150;BME280;3106;42.670;23.318;2023-12-28T10:03:36;95462.44;;;10.24;73.27
6150;BME280;3106;42.670;23.318;2023-12-28T10:06:03;95458.47;;;10.13;72.29
6150;BME280;3106;42.670;23.318;2023-12-28T10:08:33;95448.22;;;9.89;72.90
6150;BME280;3106;42.670;23.318;2023-12-28T10:11:02;95453.34;;;9.60;74.62
6150;BME280;3106;42.670;23.318;2023-12-28T10:13:32;95446.69;;;9.32;76.10
6150;BME280;3106;42.670;23.318;2023-12-28T10:16:00;95444.38;;;9.48;76.47
6150;BME280;3106;42.670;23.318;2023-12-28T10:18:28;95439.50;;;9.58;76.02
6150;BME280;3106;42.670;23.318;2023-12-28T10:20:55;95444.59;;;9.68;75.94
6150;BME280;3106;42.670;23.318;2023-12-28T10:23:22;95436.44;;;9.73;75.41
6150;BME280;3106;42.670;23.318;2023-12-28T10:25:55;95427.13;;;9.71;75.87
6150;BME280;3106;42.670;23.318;2023-12-28T10:28:24;95425.25;;;9.63;76.40
6150;BME280;3106;42.670;23.318;2023-12-28T10:30:56;95391.22;;;9.29;77.12
6150;BME280;3106;42.670;23.318;2023-12-28T10:33:23;95402.75;;;9.47;78.17
6150;BME280;3106;42.670;23.318;2023-12-28T10:35:51;95402.75;;;9.55;78.70
6150;BME280;3106;42.670;23.318;2023-12-28T10:38:18;95401.22;;;9.63;78.44
6150;BME280;3106;42.670;23.318;2023-12-28T10:40:49;95374.69;;;9.58;78.24
6150;BME280;3106;42.670;23.318;2023-12-28T10:43:23;95360.38;;;9.62;78.36
6150;BME280;3106;42.670;23.318;2023-12-28T10:45:51;95379.22;;;9.66;78.72
6150;BME280;3106;42.670;23.318;2023-12-28T10:48:26;95365.72;;;9.71;78.92
6150;BME280;3106;42.670;23.318;2023-12-28T10:50:57;95369.66;;;9.65;78.72
6150;BME280;3106;42.670;23.318;2023-12-28T10:53:38;95358.19;;;9.73;79.05
6150;BME280;3106;42.670;23.318;2023-12-28T10:56:24;95361.34;;;9.83;78.81
6150;BME280;3106;42.670;23.318;2023-12-28T10:59:00;95334.94;;;9.82;78.47
6150;BME280;3106;42.670;23.318;2023-12-28T11:01:32;95368.13;;;10.15;77.83
6150;BME280;3106;42.670;23.318;2023-12-28T11:04:07;95345.78;;;10.19;76.74
6150;BME280;3106;42.670;23.318;2023-12-28T11:06:37;95350.22;;;10.15;76.81
6150;BME280;3106;42.670;23.318;2023-12-28T11:09:05;95358.53;;;10.22;76.60
6150;BME280;3106;42.670;23.318;2023-12-28T11:11:33;95340.13;;;10.29;76.24
6150;BME280;3106;42.670;23.318;2023-12-28T11:17:20;95328.59;;;10.46;75.76
6150;BME280;3106;42.670;23.318;2023-12-28T11:19:48;95324.81;;;10.55;75.67
6150;BME280;3106;42.670;23.318;2023-12-28T11:22:16;95317.34;;;10.69;74.99
6150;BME280;3106;42.670;23.318;2023-12-28T11:24:43;95315.28;;;10.83;74.45
6150;BME280;3106;42.670;23.318;2023-12-28T11:27:09;95315.81;;;10.97;73.65
6150;BME280;3106;42.670;23.318;2023-12-28T11:29:38;95308.81;;;10.84;73.88
6150;BME280;3106;42.670;23.318;2023-12-28T11:32:05;95300.03;;;10.75;73.98
6150;BME280;3106;42.670;23.318;2023-12-28T11:34:34;95297.84;;;10.77;74.63
6150;BME280;3106;42.670;23.318;2023-12-28T11:37:04;95261.38;;;10.64;74.20
6150;BME280;3106;42.670;23.318;2023-12-28T11:39:32;95296.63;;;10.95;74.24
6150;BME280;3106;42.670;23.318;2023-12-28T11:42:00;95285.78;;;10.91;73.79
6150;BME280;3106;42.670;23.318;2023-12-28T11:44:28;95287.72;;;10.82;74.03
6150;BME280;3106;42.670;23.318;2023-12-28T11:46:58;95284.59;;;10.80;73.93
6150;BME280;3106;42.670;23.318;2023-12-28T11:49:26;95290.28;;;10.79;74.38
6150;BME280;3106;42.670;23.318;2023-12-28T11:51:55;95287.91;;;10.77;74.41
6150;BME280;3106;42.670;23.318;2023-12-28T11:54:24;95281.31;;;10.75;74.53
6150;BME280;3106;42.670;23.318;2023-12-28T11:56:52;95272.81;;;10.73;74.41
6150;BME280;3106;42.670;23.318;2023-12-28T11:59:19;95272.34;;;10.71;74.29
6150;BME280;3106;42.670;23.318;2023-12-28T12:01:51;95276.28;;;10.73;74.48
6150;BME280;3106;42.670;23.318;2023-12-28T12:04:21;95253.34;;;10.64;74.01
6150;BME280;3106;42.670;23.318;2023-12-28T12:06:48;95277.59;;;10.96;73.31
6150;BME280;3106;42.670;23.318;2023-12-28T12:09:16;95272.94;;;11.14;72.78
6150;BME280;3106;42.670;23.318;2023-12-28T12:11:43;95268.88;;;11.28;71.78
6150;BME280;3106;42.670;23.318;2023-12-28T12:14:11;95264.00;;;11.30;70.98
6150;BME280;3106;42.670;23.318;2023-12-28T12:16:38;95265.59;;;11.31;71.38
6150;BME280;3106;42.670;23.318;2023-12-28T12:19:07;95254.38;;;11.29;71.17
6150;BME280;3106;42.670;23.318;2023-12-28T12:21:35;95256.44;;;11.32;70.76
6150;BME280;3106;42.670;23.318;2023-12-28T12:24:02;95248.13;;;11.25;70.97
6150;BME280;3106;42.670;23.318;2023-12-28T12:26:30;95249.31;;;11.16;70.75
6150;BME280;3106;42.670;23.318;2023-12-28T12:28:57;95252.00;;;11.16;70.81
6150;BME280;3106;42.670;23.318;2023-12-28T12:31:24;95257.47;;;11.19;70.47
6150;BME280;3106;42.670;23.318;2023-12-28T12:33:51;95256.69;;;11.19;70.06
6150;BME280;3106;42.670;23.318;2023-12-28T12:36:18;95261.25;;;11.18;70.50
6150;BME280;3106;42.670;23.318;2023-12-28T12:38:50;95261.72;;;11.41;69.60
6150;BME280;3106;42.670;23.318;2023-12-28T12:41:17;95264.47;;;11.53;67.81
6150;BME280;3106;42.670;23.318;2023-12-28T12:43:44;95257.94;;;11.62;67.00
6150;BME280;3106;42.670;23.318;2023-12-28T12:46:12;95252.06;;;11.69;65.69
6150;BME280;3106;42.670;23.318;2023-12-28T12:48:40;95264.50;;;11.73;66.53
6150;BME280;3106;42.670;23.318;2023-12-28T12:51:07;95258.75;;;11.95;66.63
6150;BME280;3106;42.670;23.318;2023-12-28T12:53:35;95260.72;;;12.51;63.44
6150;BME280;3106;42.670;23.318;2023-12-28T12:56:04;95262.78;;;13.14;61.02
6150;BME280;3106;42.670;23.318;2023-12-28T12:58:32;95261.94;;;13.49;58.92
6150;BME280;3106;42.670;23.318;2023-12-28T13:00:59;95261.25;;;13.91;57.35
6150;BME280;3106;42.670;23.318;2023-12-28T13:03:29;95255.25;;;14.10;55.07
6150;BME280;3106;42.670;23.318;2023-12-28T13:05:56;95237.41;;;13.90;55.65
6150;BME280;3106;42.670;23.318;2023-12-28T13:08:23;95244.69;;;14.17;55.50
6150;BME280;3106;42.670;23.318;2023-12-28T13:10:51;95240.28;;;14.40;54.10
6150;BME280;3106;42.670;23.318;2023-12-28T13:13:20;95239.63;;;14.74;53.36
6150;BME280;3106;42.670;23.318;2023-12-28T13:15:48;95240.47;;;14.93;52.36
6150;BME280;3106;42.670;23.318;2023-12-28T13:18:15;95242.06;;;14.48;52.98
6150;BME280;3106;42.670;23.318;2023-12-28T13:20:41;95237.63;;;13.85;54.56
6150;BME280;3106;42.670;23.318;2023-12-28T13:23:10;95240.44;;;13.49;55.56
6150;BME280;3106;42.670;23.318;2023-12-28T13:25:36;95242.06;;;13.26;56.95